< < Back
Terminal Aerodrome Forecast


Current Version              Previous Versions:   1  2  3  4  5  6  7  8  9  

Terminal Aerodrome Forecast

059
FTUS42 KGSP 181132
TAFGSP
TAF
KGSP 181132Z 1812/1912 36003KT P6SM OVC090
      TEMPO 1812/1813 BKN002
     FM181500 04006KT P6SM BKN050
     FM190500 06004KT 5SM BR OVC015
     FM190700 07010KT 4SM -SHRA BR OVC008=



Latest METAR

498
SAUS70 KWBC 190000 RRB
MTRGSP
METAR KGSP 182353Z 13003KT 10SM FEW120 20/17 A2994 RMK AO2 SLP129
T02000172 10250 20200 51003


USA.gov is the U.S. government's official web portal to all federal, state and local government web resources and services.